createdAt,value
2018-07-12T00:01:59.226Z,45.58
2018-07-12T00:04:25.865Z,45.66
2018-07-12T00:06:52.551Z,45.65
2018-07-12T00:09:19.188Z,45.62
2018-07-12T00:11:45.821Z,45.68
2018-07-12T00:14:12.454Z,45.78
2018-07-12T00:16:39.090Z,45.81
2018-07-12T00:19:05.777Z,45.89
2018-07-12T00:21:32.418Z,45.98
2018-07-12T00:23:59.055Z,45.93
2018-07-12T00:26:25.782Z,45.95
2018-07-12T00:28:52.384Z,45.99
2018-07-12T00:31:19.025Z,45.99
2018-07-12T00:33:45.773Z,46.01
2018-07-12T00:36:12.356Z,46.10
2018-07-12T00:38:39.088Z,46.09
2018-07-12T00:41:05.735Z,46.18
2018-07-12T00:43:32.412Z,46.22
2018-07-12T00:45:59.054Z,46.16
2018-07-12T00:48:25.735Z,46.18
2018-07-12T00:50:52.411Z,46.24
2018-07-12T00:53:19.074Z,46.27
2018-07-12T00:55:45.706Z,46.31
2018-07-12T00:58:12.387Z,46.35
2018-07-12T01:00:39.030Z,46.39
2018-07-12T01:03:05.678Z,46.46
2018-07-12T01:05:32.318Z,46.46
2018-07-12T01:07:58.991Z,46.48
2018-07-12T01:10:25.625Z,46.42
2018-07-12T01:12:52.276Z,46.42
2018-07-12T01:15:18.949Z,46.48
2018-07-12T01:17:45.586Z,46.50
2018-07-12T01:20:12.260Z,46.58
2018-07-12T01:22:38.892Z,46.55
2018-07-12T01:25:05.527Z,46.62
2018-07-12T01:27:32.179Z,46.51
2018-07-12T01:29:58.869Z,46.68
2018-07-12T01:32:25.514Z,46.72
2018-07-12T01:34:52.148Z,46.76
2018-07-12T01:37:18.836Z,46.70
2018-07-12T01:39:45.446Z,46.80
2018-07-12T01:42:12.143Z,46.81
2018-07-12T01:44:38.785Z,46.86
2018-07-12T01:47:05.422Z,46.91
2018-07-12T01:49:32.068Z,46.92
2018-07-12T01:51:58.700Z,46.96
2018-07-12T01:54:25.335Z,46.87
2018-07-12T01:56:51.986Z,46.95
2018-07-12T01:59:18.612Z,47.00
2018-07-12T02:01:45.321Z,47.03
2018-07-12T02:04:11.977Z,47.01
2018-07-12T02:06:38.624Z,47.09
2018-07-12T02:09:05.331Z,47.07
2018-07-12T02:11:31.965Z,47.09
2018-07-12T02:13:58.559Z,47.11
2018-07-12T02:16:25.210Z,47.12
2018-07-12T02:18:51.843Z,47.13
2018-07-12T02:21:18.538Z,47.11
2018-07-12T02:23:45.154Z,47.21
2018-07-12T02:26:11.835Z,47.20
2018-07-12T02:28:38.601Z,47.31
2018-07-12T02:31:05.248Z,47.34
2018-07-12T02:33:32.010Z,47.35
2018-07-12T02:35:58.649Z,47.34
2018-07-12T02:38:25.331Z,47.31
2018-07-12T02:40:52.007Z,47.35
2018-07-12T02:43:18.630Z,47.41
2018-07-12T02:45:45.267Z,47.41
2018-07-12T02:48:12.048Z,47.33
2018-07-12T02:50:38.642Z,47.44
2018-07-12T02:53:05.301Z,47.48
2018-07-12T02:55:31.947Z,47.43
2018-07-12T02:57:58.575Z,47.23
2018-07-12T03:00:25.265Z,47.27
2018-07-12T03:02:51.906Z,47.54
2018-07-12T03:05:18.632Z,47.54
2018-07-12T03:07:45.229Z,47.97
2018-07-12T03:10:11.864Z,48.20
2018-07-12T03:12:38.550Z,47.78
2018-07-12T03:15:05.186Z,48.08
2018-07-12T03:17:31.835Z,48.04
2018-07-12T03:19:58.526Z,48.25
2018-07-12T03:22:25.176Z,48.13
2018-07-12T03:24:51.817Z,47.99
2018-07-12T03:27:18.467Z,47.92
2018-07-12T03:32:11.764Z,48.00
2018-07-12T03:34:38.403Z,48.39
2018-07-12T03:37:05.038Z,48.28
2018-07-12T03:39:31.739Z,48.23
2018-07-12T03:41:58.369Z,48.30
2018-07-12T03:44:25.008Z,48.38
2018-07-12T03:46:51.711Z,48.48
2018-07-12T03:49:18.314Z,48.25
2018-07-12T03:51:44.954Z,48.70
2018-07-12T03:54:11.692Z,48.57
2018-07-12T03:56:38.405Z,48.53
2018-07-12T03:59:05.026Z,48.53
2018-07-12T04:01:31.736Z,48.78
2018-07-12T04:03:58.374Z,48.48
2018-07-12T04:06:25.014Z,48.17
2018-07-12T04:08:51.672Z,48.25
2018-07-12T04:11:18.364Z,48.29
2018-07-12T04:13:45.041Z,48.35
2018-07-12T04:16:11.673Z,48.20
2018-07-12T04:18:38.356Z,48.40
2018-07-12T04:21:05.042Z,48.25
2018-07-12T04:23:31.680Z,47.90
2018-07-12T04:25:58.366Z,48.07
2018-07-12T04:28:25.014Z,48.10
2018-07-12T04:30:51.702Z,47.76
2018-07-12T04:33:18.354Z,47.44
2018-07-12T04:35:44.995Z,46.27
2018-07-12T04:38:11.629Z,45.85
2018-07-12T04:40:38.280Z,45.82
2018-07-12T04:43:04.994Z,45.26
2018-07-12T04:45:31.621Z,44.89
2018-07-12T04:47:58.308Z,44.32
2018-07-12T04:50:24.953Z,43.98
2018-07-12T04:52:51.901Z,43.42
2018-07-12T04:55:18.553Z,45.04
2018-07-12T04:57:45.191Z,46.20
2018-07-12T05:00:11.867Z,45.87
2018-07-12T05:02:38.500Z,43.90
2018-07-12T05:05:05.187Z,42.25
2018-07-12T05:07:31.821Z,43.92
2018-07-12T05:09:58.458Z,41.80
2018-07-12T05:12:25.147Z,42.47
2018-07-12T05:14:51.826Z,43.38
2018-07-12T05:17:18.491Z,44.94
2018-07-12T05:19:45.091Z,45.97
2018-07-12T05:22:11.748Z,45.84
2018-07-12T05:24:38.433Z,46.06
2018-07-12T05:27:05.098Z,45.56
2018-07-12T05:29:32.069Z,44.32
2018-07-12T05:31:58.676Z,45.86
2018-07-12T05:34:25.339Z,45.11
2018-07-12T05:36:51.979Z,45.94
2018-07-12T05:39:18.817Z,43.67
2018-07-12T05:41:45.483Z,42.63
2018-07-12T05:44:12.136Z,42.18
2018-07-12T05:46:38.862Z,41.83
2018-07-12T05:49:05.540Z,41.50
2018-07-12T05:51:35.420Z,41.86
2018-07-12T05:54:02.057Z,41.29
2018-07-12T05:56:28.705Z,41.48
2018-07-12T05:58:55.385Z,41.53
2018-07-12T06:01:22.024Z,40.84
2018-07-12T06:03:48.721Z,40.96
2018-07-12T06:06:15.376Z,40.56
2018-07-12T06:08:42.057Z,40.84
2018-07-12T06:11:08.700Z,41.24
2018-07-12T06:13:35.439Z,41.70
2018-07-12T06:16:02.096Z,41.76
2018-07-12T06:18:28.695Z,41.89
2018-07-12T06:20:55.385Z,41.80
2018-07-12T06:23:22.088Z,41.88
2018-07-12T06:25:48.777Z,41.79
2018-07-12T06:28:15.516Z,41.70
2018-07-12T06:30:42.217Z,41.87
2018-07-12T06:33:08.854Z,42.12
2018-07-12T06:35:35.507Z,42.83
2018-07-12T06:38:02.180Z,42.38
2018-07-12T06:40:28.864Z,42.29
2018-07-12T06:42:55.494Z,42.21
2018-07-12T06:45:22.199Z,42.05
2018-07-12T06:47:48.902Z,42.13
2018-07-12T06:50:15.571Z,42.10
2018-07-12T06:52:44.432Z,42.31
2018-07-12T06:55:08.952Z,41.99
2018-07-12T06:57:35.608Z,41.78
2018-07-12T07:00:02.281Z,41.65
2018-07-12T07:02:28.902Z,41.84
2018-07-12T07:04:55.543Z,41.65
2018-07-12T07:07:22.300Z,41.70
2018-07-12T07:09:48.898Z,41.63
2018-07-12T07:12:15.578Z,41.47
2018-07-12T07:14:42.211Z,41.57
2018-07-12T07:17:08.833Z,41.49
2018-07-12T07:19:35.515Z,41.45
2018-07-12T07:22:02.165Z,41.31
2018-07-12T07:24:28.855Z,41.81
2018-07-12T07:26:55.510Z,41.74
2018-07-12T07:29:22.274Z,41.75
2018-07-12T07:31:48.921Z,42.16
2018-07-12T07:34:15.619Z,42.12
2018-07-12T07:36:42.323Z,42.33
2018-07-12T07:39:08.971Z,42.31
2018-07-12T07:41:35.666Z,42.36
2018-07-12T07:44:02.299Z,42.40
2018-07-12T07:46:28.968Z,42.34
2018-07-12T07:48:55.665Z,42.42
2018-07-12T07:51:22.302Z,42.46
2018-07-12T07:53:48.936Z,42.29
2018-07-12T07:56:15.628Z,42.16
2018-07-12T07:58:42.319Z,42.17
2018-07-12T08:01:08.956Z,42.03
2018-07-12T08:03:35.691Z,42.29
2018-07-12T08:06:02.317Z,42.35
2018-07-12T08:08:28.995Z,42.76
2018-07-12T08:10:55.647Z,42.52
2018-07-12T08:13:22.279Z,42.45
2018-07-12T08:15:48.931Z,42.44
2018-07-12T08:18:15.626Z,42.68
2018-07-12T08:20:42.269Z,42.47
2018-07-12T08:23:10.258Z,42.60
2018-07-12T08:25:35.583Z,42.50
2018-07-12T08:28:02.315Z,42.47
2018-07-12T08:30:28.917Z,42.59
2018-07-12T08:32:55.584Z,42.99
2018-07-12T08:35:22.208Z,43.32
2018-07-12T08:37:48.949Z,44.19
2018-07-12T08:40:15.574Z,44.77
2018-07-12T08:42:42.341Z,44.15
2018-07-12T08:45:08.952Z,44.47
2018-07-12T08:47:35.676Z,43.91
2018-07-12T08:50:02.281Z,43.51
2018-07-12T08:52:28.938Z,43.85
2018-07-12T08:54:55.681Z,43.78
2018-07-12T08:57:22.308Z,43.98
2018-07-12T08:59:48.956Z,43.97
2018-07-12T09:02:15.673Z,44.14
2018-07-12T09:04:42.345Z,44.03
2018-07-12T09:07:08.949Z,43.95
2018-07-12T09:09:35.632Z,44.11
2018-07-12T09:12:02.248Z,43.90
2018-07-12T09:14:28.932Z,44.04
2018-07-12T09:16:55.638Z,44.02
2018-07-12T09:19:22.277Z,43.86
2018-07-12T09:21:49.045Z,43.92
2018-07-12T09:24:15.665Z,43.98
2018-07-12T09:26:42.396Z,44.41
2018-07-12T09:29:09.115Z,43.74
2018-07-12T09:31:35.712Z,43.65
2018-07-12T09:34:02.380Z,43.83
2018-07-12T09:36:29.036Z,44.00
2018-07-12T09:38:55.678Z,44.20
2018-07-12T09:41:22.333Z,44.18
2018-07-12T09:43:49.012Z,44.15
2018-07-12T09:46:15.648Z,44.42
2018-07-12T09:48:42.352Z,44.45
2018-07-12T09:51:08.989Z,44.40
2018-07-12T09:53:35.676Z,44.78
2018-07-12T09:56:02.485Z,44.01
2018-07-12T09:58:29.003Z,44.03
2018-07-12T10:00:55.669Z,43.96
2018-07-12T10:03:23.310Z,42.79
2018-07-12T10:05:53.528Z,42.75
2018-07-12T10:08:20.214Z,43.02
2018-07-12T10:10:46.856Z,42.84
2018-07-12T10:13:13.596Z,42.71
2018-07-12T10:15:40.280Z,42.63
2018-07-12T10:18:06.918Z,42.36
2018-07-12T10:20:33.611Z,42.12
2018-07-12T10:23:00.249Z,41.78
2018-07-12T10:25:26.972Z,42.24
2018-07-12T10:27:53.773Z,41.76
2018-07-12T10:30:21.560Z,41.92
2018-07-12T10:32:48.227Z,42.54
2018-07-12T10:35:14.980Z,42.77
2018-07-12T10:37:41.585Z,43.15
2018-07-12T10:40:08.259Z,43.14
2018-07-12T10:42:34.886Z,43.33
2018-07-12T10:45:01.547Z,43.28
2018-07-12T10:47:28.353Z,43.40
2018-07-12T10:49:55.005Z,44.32
2018-07-12T10:52:21.671Z,43.68
2018-07-12T10:54:48.309Z,43.44
2018-07-12T10:57:14.936Z,43.00
2018-07-12T10:59:41.677Z,42.66
2018-07-12T11:02:08.652Z,42.18
2018-07-12T11:04:35.270Z,43.26
2018-07-12T11:07:01.898Z,43.02
2018-07-12T11:09:29.590Z,43.24
2018-07-12T11:11:56.221Z,43.47
2018-07-12T11:14:23.007Z,43.49
2018-07-12T11:16:49.600Z,43.60
2018-07-12T11:19:16.255Z,43.57
2018-07-12T11:21:42.920Z,43.65
2018-07-12T11:24:09.593Z,43.62
2018-07-12T11:26:36.234Z,43.65
2018-07-12T11:29:02.882Z,43.75
2018-07-12T11:31:29.636Z,43.79
2018-07-12T11:33:58.764Z,43.90
2018-07-12T11:36:25.427Z,43.80
2018-07-12T11:38:52.111Z,43.79
2018-07-12T11:41:18.858Z,43.80
2018-07-12T11:43:45.499Z,43.89
2018-07-12T11:46:12.159Z,43.85
2018-07-12T11:48:38.797Z,44.09
2018-07-12T11:51:05.466Z,43.78
2018-07-12T11:53:32.102Z,43.38
2018-07-12T11:55:58.757Z,43.73
2018-07-12T11:58:25.426Z,43.84
2018-07-12T12:00:52.068Z,43.87
2018-07-12T12:03:18.703Z,43.78
2018-07-12T12:05:45.340Z,43.76
2018-07-12T12:08:12.027Z,43.66
2018-07-12T12:10:38.684Z,43.95
2018-07-12T12:13:05.357Z,43.80
2018-07-12T12:15:32.030Z,44.05
2018-07-12T12:17:58.683Z,43.90
2018-07-12T12:20:25.321Z,43.82
2018-07-12T12:22:51.964Z,43.84
2018-07-12T12:25:18.735Z,43.83
2018-07-12T12:27:45.389Z,43.85
2018-07-12T12:30:12.069Z,43.98
2018-07-12T12:32:38.736Z,43.82
2018-07-12T12:35:05.409Z,43.81
2018-07-12T12:37:32.052Z,43.83
2018-07-12T12:39:59.171Z,43.57
2018-07-12T12:42:25.808Z,43.82
2018-07-12T12:44:52.572Z,43.69
2018-07-12T12:47:19.227Z,43.77
2018-07-12T12:49:45.944Z,43.79
2018-07-12T12:52:12.573Z,43.80
2018-07-12T12:54:39.230Z,43.77
2018-07-12T12:57:05.926Z,43.92
2018-07-12T12:59:32.629Z,43.90
2018-07-12T13:01:59.292Z,44.02
2018-07-12T13:04:25.940Z,44.00
2018-07-12T13:06:52.590Z,44.02
2018-07-12T13:09:19.283Z,43.95
2018-07-12T13:11:45.927Z,44.00
2018-07-12T13:14:12.569Z,44.01
2018-07-12T13:16:39.295Z,43.97
2018-07-12T13:19:05.947Z,43.93
2018-07-12T13:21:32.627Z,44.01
2018-07-12T13:24:02.303Z,43.63
2018-07-12T13:26:28.964Z,44.02
2018-07-12T13:28:55.623Z,43.59
2018-07-12T13:31:22.313Z,43.36
2018-07-12T13:33:49.039Z,42.59
2018-07-12T13:36:15.686Z,42.49
2018-07-12T13:38:42.715Z,42.52
2018-07-12T13:41:09.374Z,42.94
2018-07-12T13:43:36.315Z,42.71
2018-07-12T13:46:02.994Z,41.88
2018-07-12T13:48:29.655Z,41.59
2018-07-12T13:50:56.365Z,41.39
2018-07-12T13:53:23.004Z,41.54
2018-07-12T13:55:49.697Z,40.73
2018-07-12T13:58:16.337Z,40.82
2018-07-12T14:00:42.963Z,40.74
2018-07-12T14:03:09.675Z,40.24
2018-07-12T14:05:36.374Z,40.87
2018-07-12T14:08:03.008Z,40.28
2018-07-12T14:10:29.654Z,40.20
2018-07-12T14:12:56.374Z,40.16
2018-07-12T14:15:23.053Z,40.08
2018-07-12T14:17:49.685Z,39.63
2018-07-12T14:20:16.367Z,39.65
2018-07-12T14:22:43.013Z,39.21
2018-07-12T14:25:09.688Z,39.12
2018-07-12T14:27:36.378Z,39.36
2018-07-12T14:30:03.034Z,39.21
2018-07-12T14:32:29.682Z,39.02
2018-07-12T14:34:56.355Z,38.92
2018-07-12T14:37:22.968Z,38.62
2018-07-12T14:39:49.738Z,38.52
2018-07-12T14:42:16.341Z,38.49
2018-07-12T14:44:42.981Z,38.26
2018-07-12T14:47:09.748Z,38.32
2018-07-12T14:49:36.354Z,38.28
2018-07-12T14:52:03.090Z,37.81
2018-07-12T14:54:29.924Z,38.04
2018-07-12T14:56:56.630Z,37.94
2018-07-12T14:59:23.343Z,38.04
2018-07-12T15:01:50.180Z,37.57
2018-07-12T15:04:16.802Z,37.63
2018-07-12T15:06:43.510Z,37.48
2018-07-12T15:09:10.181Z,37.26
2018-07-12T15:11:36.807Z,37.21
2018-07-12T15:14:03.445Z,37.19
2018-07-12T15:16:30.089Z,37.15
2018-07-12T15:18:56.736Z,37.00
2018-07-12T15:21:23.383Z,37.19
2018-07-12T15:23:50.024Z,36.73
2018-07-12T15:26:16.732Z,36.99
2018-07-12T15:28:43.310Z,36.94
2018-07-12T15:31:09.965Z,36.68
2018-07-12T15:33:36.655Z,37.00
2018-07-12T15:36:03.294Z,37.03
2018-07-12T15:38:29.971Z,36.96
2018-07-12T15:40:56.647Z,36.66
2018-07-12T15:43:23.294Z,36.61
2018-07-12T15:45:49.938Z,36.84
2018-07-12T15:48:16.580Z,36.69
2018-07-12T15:50:43.260Z,36.50
2018-07-12T15:53:10.012Z,36.64
2018-07-12T15:55:36.640Z,36.64
2018-07-12T15:58:03.308Z,36.40
2018-07-12T16:00:30.017Z,36.33
2018-07-12T16:02:56.738Z,36.40
2018-07-12T16:05:23.401Z,36.39
2018-07-12T16:07:50.081Z,36.18
2018-07-12T16:10:16.736Z,36.18
2018-07-12T16:12:43.371Z,36.30
2018-07-12T16:15:10.015Z,36.06
2018-07-12T16:17:36.702Z,35.88
2018-07-12T16:20:03.376Z,35.85
2018-07-12T16:22:31.165Z,35.99
2018-07-12T16:24:57.746Z,35.70
2018-07-12T16:27:24.427Z,35.69
2018-07-12T16:29:51.114Z,35.54
2018-07-12T16:32:17.759Z,36.15
2018-07-12T16:34:44.451Z,36.35
2018-07-12T16:37:11.124Z,36.94
2018-07-12T16:39:37.729Z,37.31
2018-07-12T16:42:04.370Z,37.10
2018-07-12T16:44:31.041Z,36.85
2018-07-12T16:46:57.678Z,36.81
2018-07-12T16:49:24.377Z,36.54
2018-07-12T16:51:51.059Z,36.32
2018-07-12T16:54:17.809Z,36.19
2018-07-12T16:56:44.449Z,36.16
2018-07-12T16:59:11.088Z,36.23
2018-07-12T17:01:37.735Z,35.85
2018-07-12T17:04:04.363Z,35.74
2018-07-12T17:06:31.036Z,35.69
2018-07-12T17:08:57.706Z,35.56
2018-07-12T17:11:24.350Z,35.47
2018-07-12T17:13:51.023Z,35.61
2018-07-12T17:16:17.666Z,35.49
2018-07-12T17:18:44.353Z,35.26
2018-07-12T17:21:10.993Z,35.20
2018-07-12T17:23:37.724Z,35.15
2018-07-12T17:26:04.451Z,35.04
2018-07-12T17:28:31.125Z,34.99
2018-07-12T17:30:57.806Z,35.07
2018-07-12T17:33:24.405Z,34.63
2018-07-12T17:35:51.081Z,34.69
2018-07-12T17:38:17.782Z,34.60
2018-07-12T17:40:44.414Z,34.44
2018-07-12T17:43:11.047Z,34.51
2018-07-12T17:45:37.692Z,34.66
2018-07-12T17:48:04.332Z,34.67
2018-07-12T17:50:32.408Z,34.36
2018-07-12T17:52:57.724Z,34.41
2018-07-12T17:55:24.375Z,34.37
2018-07-12T17:57:51.071Z,34.25
2018-07-12T18:00:17.745Z,34.36
2018-07-12T18:02:44.387Z,34.09
2018-07-12T18:05:11.176Z,34.10
2018-07-12T18:07:37.732Z,33.90
2018-07-12T18:10:04.368Z,33.97
2018-07-12T18:12:31.016Z,33.63
2018-07-12T18:14:57.707Z,33.80
2018-07-12T18:17:24.337Z,33.87
2018-07-12T18:19:51.034Z,33.87
2018-07-12T18:22:17.826Z,33.88
2018-07-12T18:24:44.401Z,33.67
2018-07-12T18:27:11.065Z,34.04
2018-07-12T18:29:37.663Z,33.80
2018-07-12T18:32:04.364Z,33.79
2018-07-12T18:34:31.001Z,33.75
2018-07-12T18:36:57.676Z,33.66
2018-07-12T18:39:24.308Z,33.66
2018-07-12T18:41:50.935Z,33.55
2018-07-12T18:44:17.614Z,33.46
2018-07-12T18:46:44.247Z,33.49
2018-07-12T18:49:10.897Z,33.33
2018-07-12T18:51:37.582Z,33.09
2018-07-12T18:54:04.217Z,33.35
2018-07-12T18:56:30.850Z,33.26
2018-07-12T18:58:57.493Z,33.16
2018-07-12T19:01:24.144Z,33.28
2018-07-12T19:03:50.862Z,33.19
2018-07-12T19:06:17.470Z,33.15
2018-07-12T19:08:44.240Z,33.43
2018-07-12T19:11:10.883Z,33.23
2018-07-12T19:13:37.534Z,33.21
2018-07-12T19:16:04.165Z,33.27
2018-07-12T19:18:30.813Z,33.04
2018-07-12T19:20:57.633Z,33.25
2018-07-12T19:23:24.236Z,33.10
2018-07-12T19:25:50.944Z,33.00
2018-07-12T19:28:17.589Z,33.08
2018-07-12T19:30:44.229Z,33.18
2018-07-12T19:33:10.912Z,33.05
2018-07-12T19:35:37.544Z,32.90
2018-07-12T19:38:04.219Z,33.06
2018-07-12T19:40:30.854Z,33.02
2018-07-12T19:42:57.539Z,33.04
2018-07-12T19:45:24.175Z,32.88
2018-07-12T19:47:50.814Z,32.89
2018-07-12T19:50:17.506Z,33.39
2018-07-12T19:52:44.140Z,34.83
2018-07-12T19:55:10.786Z,35.35
2018-07-12T19:57:37.465Z,35.33
2018-07-12T20:00:04.073Z,35.50
2018-07-12T20:02:30.716Z,34.65
2018-07-12T20:04:57.402Z,35.12
2018-07-12T20:07:24.051Z,35.15
2018-07-12T20:09:50.701Z,35.03
2018-07-12T20:12:17.346Z,34.92
2018-07-12T20:14:43.986Z,34.83
2018-07-12T20:17:10.663Z,34.58
2018-07-12T20:19:37.305Z,34.50
2018-07-12T20:22:03.947Z,34.48
2018-07-12T20:24:30.641Z,34.37
2018-07-12T20:26:57.284Z,34.28
2018-07-12T20:29:23.959Z,34.42
2018-07-12T20:31:50.598Z,34.19
2018-07-12T20:34:17.305Z,34.15
2018-07-12T20:36:43.942Z,34.40
2018-07-12T20:39:10.545Z,34.15
2018-07-12T20:41:37.228Z,34.01
2018-07-12T20:44:03.982Z,33.91
2018-07-12T20:46:30.561Z,34.04
2018-07-12T20:48:57.192Z,34.03
2018-07-12T20:51:23.836Z,33.90
2018-07-12T20:53:50.474Z,33.83
2018-07-12T20:56:17.127Z,33.78
2018-07-12T20:58:43.817Z,33.80
2018-07-12T21:01:10.488Z,34.45
2018-07-12T21:03:37.121Z,35.86
2018-07-12T21:06:03.844Z,36.11
2018-07-12T21:08:30.526Z,36.14
2018-07-12T21:10:57.165Z,36.16
2018-07-12T21:13:23.805Z,36.28
2018-07-12T21:15:50.457Z,36.75
2018-07-12T21:18:18.667Z,36.78
2018-07-12T21:20:43.799Z,36.73
2018-07-12T21:23:10.474Z,36.84
2018-07-12T21:25:37.173Z,36.98
2018-07-12T21:28:03.804Z,37.17
2018-07-12T21:30:30.481Z,37.27
2018-07-12T21:32:57.151Z,37.26
2018-07-12T21:35:23.788Z,37.45
2018-07-12T21:37:50.703Z,37.45
2018-07-12T21:40:17.335Z,37.70
2018-07-12T21:42:44.032Z,37.81
2018-07-12T21:45:10.844Z,37.87
2018-07-12T21:47:37.480Z,38.04
2018-07-12T21:50:04.110Z,38.08
2018-07-12T21:52:30.801Z,38.21
2018-07-12T21:54:57.405Z,38.26
2018-07-12T21:57:24.095Z,38.36
2018-07-12T21:59:50.737Z,38.53
2018-07-12T22:02:17.378Z,38.62
2018-07-12T22:04:44.035Z,38.72
2018-07-12T22:07:10.814Z,38.78
2018-07-12T22:09:37.491Z,38.91
2018-07-12T22:12:04.127Z,38.97
2018-07-12T22:14:30.804Z,38.96
2018-07-12T22:16:57.451Z,39.08
2018-07-12T22:19:24.071Z,39.13
2018-07-12T22:21:50.707Z,39.33
2018-07-12T22:24:17.397Z,39.35
2018-07-12T22:26:44.035Z,39.29
2018-07-12T22:29:10.674Z,39.49
2018-07-12T22:31:37.355Z,39.56
2018-07-12T22:34:03.982Z,39.57
2018-07-12T22:36:30.670Z,39.61
2018-07-12T22:38:57.352Z,39.68
2018-07-12T22:41:23.986Z,39.76
2018-07-12T22:43:50.656Z,39.95
2018-07-12T22:46:17.280Z,39.94
2018-07-12T22:48:43.960Z,40.09
2018-07-12T22:51:10.631Z,40.11
2018-07-12T22:53:37.244Z,40.05
2018-07-12T22:56:03.916Z,40.19
2018-07-12T22:58:30.559Z,40.32
2018-07-12T23:00:57.231Z,40.36
2018-07-12T23:03:23.866Z,40.43
2018-07-12T23:05:50.601Z,40.40
2018-07-12T23:08:17.237Z,40.48
2018-07-12T23:10:43.878Z,40.64
2018-07-12T23:13:10.570Z,40.67
2018-07-12T23:15:37.215Z,40.72
2018-07-12T23:18:03.850Z,40.75
2018-07-12T23:20:30.498Z,40.73
2018-07-12T23:22:57.184Z,40.82
2018-07-12T23:25:23.850Z,40.97
2018-07-12T23:27:51.500Z,41.04
2018-07-12T23:30:17.110Z,41.04
2018-07-12T23:32:43.750Z,41.10
2018-07-12T23:35:10.385Z,41.17
2018-07-12T23:37:37.020Z,41.23
2018-07-12T23:40:03.657Z,41.33
2018-07-12T23:42:30.342Z,41.44
2018-07-12T23:44:56.978Z,41.35
2018-07-12T23:47:23.638Z,41.42
2018-07-12T23:49:50.305Z,41.52
2018-07-12T23:52:16.892Z,41.63
2018-07-12T23:54:43.640Z,41.66
2018-07-12T23:57:10.218Z,41.72
2018-07-12T23:59:36.924Z,41.74
